createdAt,value
2023-02-11T00:02:10.728Z,102370.66
2023-02-11T00:04:37.158Z,102354.75
2023-02-11T00:07:03.542Z,102361.16
2023-02-11T00:09:31.849Z,102364.28
2023-02-11T00:11:58.351Z,102364.53
2023-02-11T00:14:24.779Z,102374.69
2023-02-11T00:16:51.353Z,102383.84
2023-02-11T00:19:19.043Z,102376.72
2023-02-11T00:21:45.458Z,102369.63
2023-02-11T00:24:11.926Z,102368.91
2023-02-11T00:26:38.288Z,102377.94
2023-02-11T00:29:05.410Z,102387.47
2023-02-11T00:31:31.946Z,102378.97
2023-02-11T00:33:58.393Z,102369.81
2023-02-11T00:36:27.970Z,102373.69
2023-02-11T00:38:55.760Z,102372.00
2023-02-11T00:41:22.672Z,102383.91
2023-02-11T00:43:49.462Z,102383.47
2023-02-11T00:46:16.234Z,102397.38
2023-02-11T00:48:42.681Z,102392.81
2023-02-11T00:51:09.679Z,102396.28
2023-02-11T00:53:37.900Z,102397.75
2023-02-11T00:56:05.218Z,102405.03
2023-02-11T00:58:31.650Z,102413.03
2023-02-11T01:00:58.416Z,102415.19
2023-02-11T01:03:25.253Z,102410.09
2023-02-11T01:05:51.963Z,102398.72
2023-02-11T01:08:18.567Z,102406.09
2023-02-11T01:10:53.937Z,102400.13
2023-02-11T01:13:20.509Z,102401.00
2023-02-11T01:15:46.924Z,102400.44
2023-02-11T01:18:13.353Z,102390.00
2023-02-11T01:20:39.748Z,102393.47
2023-02-11T01:23:06.123Z,102390.81
2023-02-11T01:25:32.483Z,102396.16
2023-02-11T01:28:00.243Z,102359.16
2023-02-11T01:30:26.880Z,102360.31
2023-02-11T01:32:53.243Z,102369.19
2023-02-11T01:35:19.695Z,102352.00
2023-02-11T01:37:46.081Z,102355.41
2023-02-11T01:40:15.342Z,102350.88
2023-02-11T01:42:42.166Z,102343.53
2023-02-11T01:45:53.312Z,102328.00
2023-02-11T01:48:22.820Z,102321.97
2023-02-11T01:50:52.646Z,102308.38
2023-02-11T01:53:19.344Z,102289.19
2023-02-11T01:55:45.759Z,102295.88
2023-02-11T01:58:12.130Z,102289.44
2023-02-11T02:00:38.964Z,102282.59
2023-02-11T02:03:12.890Z,102285.41
2023-02-11T02:05:46.794Z,102287.06
2023-02-11T02:08:19.171Z,102289.69
2023-02-11T02:10:48.479Z,102286.81
2023-02-11T02:13:15.398Z,102287.41
2023-02-11T02:15:45.645Z,102285.78
2023-02-11T02:18:29.300Z,102287.31
2023-02-11T02:21:22.967Z,102282.66
2023-02-11T02:24:31.095Z,102288.91
2023-02-11T02:27:27.354Z,102281.09
2023-02-11T02:30:19.353Z,102282.41
2023-02-11T02:33:10.491Z,102283.50
2023-02-11T02:35:53.433Z,102285.75
2023-02-11T02:38:25.418Z,102286.75
2023-02-11T02:40:55.760Z,102286.97
2023-02-11T02:43:23.807Z,102284.38
2023-02-11T02:45:50.496Z,102262.25
2023-02-11T02:48:27.529Z,102263.94
2023-02-11T02:51:06.558Z,102265.13
2023-02-11T02:53:44.401Z,102252.78
2023-02-11T02:56:18.439Z,102260.19
2023-02-11T02:59:03.974Z,102262.75
2023-02-11T03:01:39.589Z,102259.72
2023-02-11T03:04:16.726Z,102265.63
2023-02-11T03:06:51.999Z,102255.75
2023-02-11T03:09:25.347Z,102252.91
2023-02-11T03:11:51.845Z,102249.91
2023-02-11T03:14:19.189Z,102240.16
2023-02-11T03:16:47.551Z,102234.66
2023-02-11T03:19:20.272Z,102235.84
2023-02-11T03:21:49.361Z,102237.88
2023-02-11T03:24:20.755Z,102244.50
2023-02-11T03:26:50.016Z,102235.13
2023-02-11T03:29:22.998Z,102234.66
2023-02-11T03:31:58.668Z,102232.63
2023-02-11T03:34:32.467Z,102223.88
2023-02-11T03:37:03.625Z,102229.84
2023-02-11T03:39:35.385Z,102216.91
2023-02-11T03:42:03.989Z,102218.44
2023-02-11T03:44:35.884Z,102228.19
2023-02-11T03:47:04.917Z,102231.66
2023-02-11T03:49:35.426Z,102238.41
2023-02-11T03:52:05.290Z,102232.41
2023-02-11T03:54:32.030Z,102234.56
2023-02-11T03:57:00.895Z,102225.31
2023-02-11T03:59:27.524Z,102233.34
2023-02-11T04:01:54.541Z,102230.34
2023-02-11T04:04:20.993Z,102220.63
2023-02-11T04:06:48.722Z,102233.06
2023-02-11T04:09:15.096Z,102238.88
2023-02-11T04:11:41.553Z,102243.78
2023-02-11T04:14:07.937Z,102253.50
2023-02-11T04:16:34.352Z,102238.50
2023-02-11T04:19:00.776Z,102239.84
2023-02-11T04:21:27.147Z,102247.63
2023-02-11T04:23:54.833Z,102238.50
2023-02-11T04:26:21.213Z,102235.03
2023-02-11T04:28:47.549Z,102242.31
2023-02-11T04:31:13.972Z,102248.22
2023-02-11T04:33:40.404Z,102240.06
2023-02-11T04:36:07.737Z,102241.94
2023-02-11T04:38:34.128Z,102243.06
2023-02-11T04:41:01.820Z,102242.47
2023-02-11T04:43:28.170Z,102233.69
2023-02-11T04:45:56.875Z,102236.31
2023-02-11T04:48:23.248Z,102238.88
2023-02-11T04:50:49.582Z,102239.47
2023-02-11T04:53:15.932Z,102246.69
2023-02-11T04:55:42.314Z,102255.41
2023-02-11T04:58:10.003Z,102252.31
2023-02-11T05:00:36.376Z,102254.94
2023-02-11T05:03:02.780Z,102257.59
2023-02-11T05:05:29.144Z,102250.63
2023-02-11T05:07:55.488Z,102242.47
2023-02-11T05:10:21.886Z,102235.28
2023-02-11T05:12:48.639Z,102237.19
2023-02-11T05:15:16.609Z,102232.75
2023-02-11T05:17:42.980Z,102223.88
2023-02-11T05:20:10.566Z,102229.38
2023-02-11T05:22:36.987Z,102221.69
2023-02-11T05:25:03.539Z,102231.31
2023-02-11T05:27:29.908Z,102244.16
2023-02-11T05:29:56.238Z,102247.38
2023-02-11T05:32:24.137Z,102248.47
2023-02-11T05:34:50.515Z,102233.94
2023-02-11T05:37:16.999Z,102236.56
2023-02-11T05:39:43.482Z,102239.84
2023-02-11T05:42:09.929Z,102238.16
2023-02-11T05:44:36.486Z,102234.28
2023-02-11T05:47:03.098Z,102239.94
2023-02-11T05:49:30.930Z,102235.03
2023-02-11T05:51:57.321Z,102239.09
2023-02-11T05:54:23.719Z,102238.53
2023-02-11T05:56:50.066Z,102232.25
2023-02-11T05:59:16.433Z,102219.78
2023-02-11T06:01:43.336Z,102220.03
2023-02-11T06:04:09.757Z,102221.00
2023-02-11T06:06:37.506Z,102214.97
2023-02-11T06:09:04.471Z,102231.31
2023-02-11T06:11:30.839Z,102219.06
2023-02-11T06:13:57.181Z,102214.84
2023-02-11T06:16:23.673Z,102219.19
2023-02-11T06:18:50.266Z,102222.19
2023-02-11T06:21:16.613Z,102221.91
2023-02-11T06:23:44.378Z,102240.28
2023-02-11T06:26:16.931Z,102231.53
2023-02-11T06:28:43.370Z,102234.91
2023-02-11T06:31:10.178Z,102224.09
2023-02-11T06:33:36.602Z,102230.31
2023-02-11T06:36:04.449Z,102231.78
2023-02-11T06:38:31.176Z,102227.31
2023-02-11T06:40:58.865Z,102237.91
2023-02-11T06:43:25.233Z,102237.06
2023-02-11T06:45:55.583Z,102228.78
2023-02-11T06:48:22.929Z,102246.56
2023-02-11T06:50:49.276Z,102236.81
2023-02-11T06:53:15.838Z,102244.28
2023-02-11T06:55:42.190Z,102238.88
2023-02-11T06:58:10.013Z,102238.13
2023-02-11T07:00:36.676Z,102241.88
2023-02-11T07:03:03.363Z,102240.78
2023-02-11T07:05:29.836Z,102244.72
2023-02-11T07:07:57.079Z,102246.16
2023-02-11T07:10:23.438Z,102246.28
2023-02-11T07:12:49.784Z,102251.47
2023-02-11T07:15:18.030Z,102250.03
2023-02-11T07:17:44.371Z,102262.16
2023-02-11T07:20:11.154Z,102262.00
2023-02-11T07:22:37.825Z,102261.66
2023-02-11T07:25:04.800Z,102255.91
2023-02-11T07:27:31.150Z,102256.84
2023-02-11T07:29:57.517Z,102252.16
2023-02-11T07:32:25.552Z,102250.75
2023-02-11T07:34:51.999Z,102250.84
2023-02-11T07:37:18.650Z,102260.81
2023-02-11T07:39:45.025Z,102259.53
2023-02-11T07:42:11.449Z,102247.03
2023-02-11T07:44:37.887Z,102253.34
2023-02-11T07:47:04.364Z,102265.44
2023-02-11T07:49:32.150Z,102271.88
2023-02-11T07:51:58.525Z,102263.31
2023-02-11T07:54:24.898Z,102270.53
2023-02-11T07:56:51.295Z,102266.44
2023-02-11T07:59:17.665Z,102284.47
2023-02-11T08:01:44.095Z,102280.25
2023-02-11T08:04:10.503Z,102270.91
2023-02-11T08:06:41.990Z,102279.41
2023-02-11T08:09:10.893Z,102266.31
2023-02-11T08:11:37.262Z,102268.50
2023-02-11T08:14:03.830Z,102259.75
2023-02-11T08:16:34.018Z,102256.88
2023-02-11T08:19:02.115Z,102260.97
2023-02-11T08:21:29.094Z,102257.94
2023-02-11T08:23:57.165Z,102255.66
2023-02-11T08:26:25.798Z,102266.72
2023-02-11T08:28:54.324Z,102265.25
2023-02-11T08:31:23.392Z,102262.16
2023-02-11T08:33:49.981Z,102256.38
2023-02-11T08:36:18.341Z,102274.66
2023-02-11T08:38:45.013Z,102274.53
2023-02-11T08:41:13.816Z,102290.59
2023-02-11T08:43:41.151Z,102286.84
2023-02-11T08:46:08.437Z,102317.97
2023-02-11T08:48:34.941Z,102286.88
2023-02-11T08:51:06.219Z,102297.31
2023-02-11T08:53:32.572Z,102291.94
2023-02-11T08:55:58.932Z,102294.31
2023-02-11T08:58:26.675Z,102296.69
2023-02-11T09:00:53.710Z,102296.81
2023-02-11T09:03:20.394Z,102308.34
2023-02-11T09:05:48.709Z,102314.59
2023-02-11T09:08:15.646Z,102309.88
2023-02-11T09:10:42.038Z,102312.19
2023-02-11T09:13:08.918Z,102317.00
2023-02-11T09:15:36.971Z,102302.81
2023-02-11T09:18:04.752Z,102309.91
2023-02-11T09:20:31.930Z,102317.00
2023-02-11T09:22:59.025Z,102316.91
2023-02-11T09:25:25.540Z,102320.50
2023-02-11T09:27:52.068Z,102331.91
2023-02-11T09:30:18.997Z,102320.38
2023-02-11T09:32:46.739Z,102322.38
2023-02-11T09:35:13.159Z,102334.97
2023-02-11T09:37:39.524Z,102337.63
2023-02-11T09:40:06.661Z,102334.75
2023-02-11T09:42:45.433Z,102345.81
2023-02-11T09:45:18.036Z,102339.09
2023-02-11T09:47:50.964Z,102346.66
2023-02-11T09:50:22.189Z,102353.63
2023-02-11T09:52:55.359Z,102360.09
2023-02-11T09:55:25.017Z,102365.38
2023-02-11T09:57:51.503Z,102378.06
2023-02-11T10:00:21.163Z,102377.63
2023-02-11T10:03:07.207Z,102375.59
2023-02-11T10:05:56.672Z,102386.41
2023-02-11T10:08:34.515Z,102376.06
2023-02-11T10:11:08.495Z,102385.31
2023-02-11T10:13:54.955Z,102388.94
2023-02-11T10:16:40.116Z,102386.72
2023-02-11T10:19:20.618Z,102389.00
2023-02-11T10:21:57.940Z,102381.19
2023-02-11T10:24:24.967Z,102390.19
2023-02-11T10:26:52.146Z,102399.00
2023-02-11T10:29:35.347Z,102382.56
2023-02-11T10:32:07.275Z,102385.69
2023-02-11T10:34:41.012Z,102391.09
2023-02-11T10:37:09.209Z,102385.44
2023-02-11T10:39:35.549Z,102387.09
2023-02-11T10:42:07.414Z,102391.22
2023-02-11T10:44:37.201Z,102394.44
2023-02-11T10:47:13.250Z,102389.28
2023-02-11T10:49:42.572Z,102390.47
2023-02-11T10:52:19.456Z,102397.44
2023-02-11T10:54:56.921Z,102392.88
2023-02-11T10:57:27.751Z,102396.38
2023-02-11T10:59:58.442Z,102396.50
2023-02-11T11:02:29.094Z,102400.47
2023-02-11T11:04:58.709Z,102391.34
2023-02-11T11:07:27.729Z,102394.34
2023-02-11T11:09:55.823Z,102390.59
2023-02-11T11:12:28.152Z,102394.31
2023-02-11T11:14:56.114Z,102380.38
2023-02-11T11:17:22.619Z,102390.72
2023-02-11T11:19:48.986Z,102396.00
2023-02-11T11:22:22.489Z,102402.25
2023-02-11T11:24:50.017Z,102395.06
2023-02-11T11:27:18.875Z,102399.28
2023-02-11T11:29:48.406Z,102396.47
2023-02-11T11:32:20.871Z,102401.16
2023-02-11T11:34:51.087Z,102401.28
2023-02-11T11:37:24.457Z,102402.63
2023-02-11T11:39:56.703Z,102398.88
2023-02-11T11:42:26.609Z,102406.94
2023-02-11T11:44:57.587Z,102404.53
2023-02-11T11:47:30.333Z,102411.47
2023-02-11T11:50:25.706Z,102404.06
2023-02-11T11:52:59.639Z,102394.16
2023-02-11T11:55:28.511Z,102395.72
2023-02-11T11:57:54.967Z,102394.88
2023-02-11T12:00:28.110Z,102384.72
2023-02-11T12:03:19.881Z,102382.72
2023-02-11T12:05:53.531Z,102387.06
2023-02-11T12:08:29.009Z,102377.59
2023-02-11T12:11:08.737Z,102382.81
2023-02-11T12:13:45.309Z,102383.59
2023-02-11T12:16:22.668Z,102391.31
2023-02-11T12:19:13.633Z,102388.31
2023-02-11T12:21:48.255Z,102376.78
2023-02-11T12:24:32.203Z,102386.66
2023-02-11T12:27:06.957Z,102374.84
2023-02-11T12:29:50.947Z,102385.56
2023-02-11T12:32:32.058Z,102390.47
2023-02-11T12:35:15.767Z,102394.28
2023-02-11T12:38:03.384Z,102389.09
2023-02-11T12:40:39.796Z,102400.34
2023-02-11T12:43:18.982Z,102405.84
2023-02-11T12:46:07.750Z,102417.94
2023-02-11T12:48:51.472Z,102405.66
2023-02-11T12:51:30.487Z,102405.50
2023-02-11T12:54:14.364Z,102410.50
2023-02-11T12:56:46.567Z,102405.72
2023-02-11T12:59:20.567Z,102403.44
2023-02-11T13:01:49.542Z,102393.13
2023-02-11T13:04:21.287Z,102395.97
2023-02-11T13:06:51.809Z,102390.81
2023-02-11T13:09:22.686Z,102389.59
2023-02-11T13:11:54.559Z,102396.94
2023-02-11T13:14:26.632Z,102400.88
2023-02-11T13:16:54.975Z,102402.94
2023-02-11T13:19:28.391Z,102409.41
2023-02-11T13:22:04.923Z,102398.56
2023-02-11T13:24:39.898Z,102403.34
2023-02-11T13:27:16.386Z,102386.56
2023-02-11T13:30:18.404Z,102398.75
2023-02-11T13:33:16.348Z,102396.50
2023-02-11T13:35:47.658Z,102406.66
2023-02-11T13:38:20.216Z,102399.25
2023-02-11T13:40:59.920Z,102402.91
2023-02-11T13:43:30.682Z,102410.81
2023-02-11T13:45:59.580Z,102403.09
2023-02-11T13:48:29.129Z,102395.47
2023-02-11T13:50:58.753Z,102398.75
2023-02-11T13:53:25.945Z,102391.06
2023-02-11T13:56:06.161Z,102402.13
2023-02-11T13:58:46.354Z,102403.75
2023-02-11T14:01:39.054Z,102413.34
2023-02-11T14:04:19.126Z,102406.66
2023-02-11T14:07:18.031Z,102419.69
2023-02-11T14:09:44.650Z,102417.72
2023-02-11T14:12:31.221Z,102422.53
2023-02-11T14:15:03.746Z,102417.72
2023-02-11T14:17:32.672Z,102416.44
2023-02-11T14:20:00.747Z,102406.38
2023-02-11T14:22:29.702Z,102421.06
2023-02-11T14:24:58.628Z,102412.41
2023-02-11T14:27:48.569Z,102414.16
2023-02-11T14:30:34.250Z,102409.41
2023-02-11T14:33:19.807Z,102406.75
2023-02-11T14:35:59.992Z,102415.47
2023-02-11T14:38:35.822Z,102413.28
2023-02-11T14:41:07.377Z,102422.66
2023-02-11T14:43:37.415Z,102425.59
2023-02-11T14:46:05.324Z,102434.81
2023-02-11T14:48:34.584Z,102434.31
2023-02-11T14:51:06.151Z,102433.38
2023-02-11T14:53:34.191Z,102435.50
2023-02-11T14:56:00.679Z,102421.88
2023-02-11T14:58:30.116Z,102425.81
2023-02-11T15:00:58.983Z,102438.69
2023-02-11T15:03:36.265Z,102442.31
2023-02-11T15:06:06.599Z,102440.91
2023-02-11T15:08:34.865Z,102440.91
2023-02-11T15:11:03.848Z,102444.91
2023-02-11T15:13:31.761Z,102461.09
2023-02-11T15:16:01.268Z,102464.09
2023-02-11T15:18:35.618Z,102468.31
2023-02-11T15:21:02.373Z,102469.72
2023-02-11T15:23:30.810Z,102475.13
2023-02-11T15:25:57.647Z,102478.13
2023-02-11T15:28:26.052Z,102479.16
2023-02-11T15:31:04.066Z,102490.47
2023-02-11T15:33:31.563Z,102482.72
2023-02-11T15:36:01.437Z,102484.06
2023-02-11T15:38:28.707Z,102484.78
2023-02-11T15:40:57.604Z,102486.75
2023-02-11T15:43:24.349Z,102485.56
2023-02-11T15:45:58.666Z,102489.00
2023-02-11T15:48:34.058Z,102484.06
2023-02-11T15:51:05.244Z,102495.94
2023-02-11T15:53:34.645Z,102503.47
2023-02-11T15:56:07.985Z,102497.88
2023-02-11T15:58:38.024Z,102490.50
2023-02-11T16:01:05.038Z,102492.78
2023-02-11T16:03:31.496Z,102487.63
2023-02-11T16:06:17.080Z,102486.22
2023-02-11T16:08:55.567Z,102479.56
2023-02-11T16:11:26.274Z,102489.41
2023-02-11T16:13:52.646Z,102478.03
2023-02-11T16:16:21.883Z,102483.41
2023-02-11T16:19:03.386Z,102477.72
2023-02-11T16:21:34.551Z,102475.91
2023-02-11T16:24:01.542Z,102474.47
2023-02-11T16:26:32.119Z,102477.91
2023-02-11T16:29:09.818Z,102478.22
2023-02-11T16:31:38.873Z,102480.31
2023-02-11T16:34:13.130Z,102478.22
2023-02-11T16:36:41.044Z,102478.44
2023-02-11T16:39:07.590Z,102484.34
2023-02-11T16:41:34.061Z,102484.94
2023-02-11T16:44:00.452Z,102476.75
2023-02-11T16:46:26.865Z,102479.16
2023-02-11T16:48:54.080Z,102487.81
2023-02-11T16:51:20.557Z,102487.25
2023-02-11T16:53:48.236Z,102486.53
2023-02-11T16:56:16.066Z,102496.06
2023-02-11T16:58:42.812Z,102499.41
2023-02-11T17:01:10.190Z,102510.88
2023-02-11T17:03:39.985Z,102500.63
2023-02-11T17:06:08.928Z,102493.88
2023-02-11T17:08:35.321Z,102505.53
2023-02-11T17:11:03.515Z,102512.47
2023-02-11T17:13:29.903Z,102508.63
2023-02-11T17:15:56.301Z,102513.53
2023-02-11T17:18:22.752Z,102522.41
2023-02-11T17:20:49.287Z,102515.00
2023-02-11T17:23:15.666Z,102523.63
2023-02-11T17:25:42.077Z,102514.94
2023-02-11T17:28:10.114Z,102522.06
2023-02-11T17:30:38.813Z,102528.97
2023-02-11T17:33:05.190Z,102524.75
2023-02-11T17:35:31.574Z,102532.38
2023-02-11T17:37:57.944Z,102540.50
2023-02-11T17:40:24.432Z,102547.22
2023-02-11T17:42:50.802Z,102554.91
2023-02-11T17:45:21.192Z,102544.94
2023-02-11T17:47:48.654Z,102554.28
2023-02-11T17:50:15.561Z,102548.50
2023-02-11T17:52:41.926Z,102552.50
2023-02-11T17:55:08.316Z,102549.38
2023-02-11T17:57:35.130Z,102552.50
2023-02-11T18:00:01.554Z,102558.16
2023-02-11T18:02:29.335Z,102557.94
2023-02-11T18:04:55.733Z,102570.22
2023-02-11T18:07:22.124Z,102578.81
2023-02-11T18:09:48.522Z,102581.56
2023-02-11T18:12:14.905Z,102586.72
2023-02-11T18:14:41.468Z,102584.25
2023-02-11T18:17:08.245Z,102585.81
2023-02-11T18:19:35.951Z,102580.97
2023-02-11T18:22:02.331Z,102579.16
2023-02-11T18:24:28.887Z,102583.94
2023-02-11T18:26:55.233Z,102583.88
2023-02-11T18:29:21.605Z,102593.03
2023-02-11T18:31:48.034Z,102600.00
2023-02-11T18:34:14.438Z,102597.59
2023-02-11T18:36:42.160Z,102587.38
2023-02-11T18:39:08.549Z,102600.38
2023-02-11T18:41:34.936Z,102596.38
2023-02-11T18:44:01.279Z,102603.28
2023-02-11T18:46:27.727Z,102604.66
2023-02-11T18:48:56.100Z,102617.31
2023-02-11T18:51:23.079Z,102622.06
2023-02-11T18:53:50.800Z,102614.34
2023-02-11T18:56:19.738Z,102607.22
2023-02-11T18:58:46.544Z,102596.28
2023-02-11T19:01:14.753Z,102591.25
2023-02-11T19:03:41.458Z,102591.78
2023-02-11T19:06:13.807Z,102592.22
2023-02-11T19:08:40.173Z,102600.34
2023-02-11T19:11:07.852Z,102599.94
2023-02-11T19:13:34.313Z,102600.53
2023-02-11T19:16:04.164Z,102607.06
2023-02-11T19:18:30.535Z,102607.69
2023-02-11T19:20:56.895Z,102609.34
2023-02-11T19:23:23.329Z,102619.81
2023-02-11T19:25:49.813Z,102631.09
2023-02-11T19:28:17.658Z,102630.66
2023-02-11T19:30:44.288Z,102632.03
2023-02-11T19:33:10.660Z,102624.81
2023-02-11T19:35:37.085Z,102627.38
2023-02-11T19:38:03.834Z,102627.59
2023-02-11T19:40:30.547Z,102638.22
2023-02-11T19:42:56.923Z,102638.56
2023-02-11T19:45:25.128Z,102640.59
2023-02-11T19:47:54.833Z,102637.47
2023-02-11T19:50:21.420Z,102651.66
2023-02-11T19:52:47.831Z,102658.19
2023-02-11T19:55:14.349Z,102661.56
2023-02-11T19:57:40.705Z,102660.31
2023-02-11T20:00:08.382Z,102664.53
2023-02-11T20:02:37.302Z,102661.06
2023-02-11T20:05:03.981Z,102663.75
2023-02-11T20:07:30.372Z,102650.78
2023-02-11T20:09:56.703Z,102656.38
2023-02-11T20:12:23.065Z,102654.31
2023-02-11T20:14:49.496Z,102652.13
2023-02-11T20:17:15.882Z,102662.91
2023-02-11T20:19:43.590Z,102666.97
2023-02-11T20:22:09.995Z,102673.13
2023-02-11T20:24:36.376Z,102678.16
2023-02-11T20:27:02.812Z,102673.00
2023-02-11T20:29:29.198Z,102670.38
2023-02-11T20:31:55.813Z,102665.94
2023-02-11T20:34:22.497Z,102674.69
2023-02-11T20:36:50.286Z,102672.06
2023-02-11T20:39:17.388Z,102666.91
2023-02-11T20:41:44.887Z,102672.06
2023-02-11T20:44:12.767Z,102677.72
2023-02-11T20:46:41.960Z,102674.59
2023-02-11T20:49:10.999Z,102675.09
2023-02-11T20:51:37.779Z,102679.63
2023-02-11T20:54:06.314Z,102675.31
2023-02-11T20:56:34.867Z,102682.28
2023-02-11T20:59:02.294Z,102689.03
2023-02-11T21:01:30.874Z,102693.09
2023-02-11T21:03:59.758Z,102701.16
2023-02-11T21:06:30.631Z,102704.16
2023-02-11T21:08:57.006Z,102707.69
2023-02-11T21:11:24.990Z,102712.09
2023-02-11T21:13:51.802Z,102723.41
2023-02-11T21:16:19.939Z,102728.25
2023-02-11T21:18:46.816Z,102728.25
2023-02-11T21:21:13.273Z,102728.03
2023-02-11T21:23:40.230Z,102715.41
2023-02-11T21:26:07.576Z,102720.56
2023-02-11T21:28:35.892Z,102721.28
2023-02-11T21:31:03.614Z,102723.47
2023-02-11T21:33:30.985Z,102733.09
2023-02-11T21:35:58.539Z,102728.88
2023-02-11T21:38:26.107Z,102732.84
2023-02-11T21:40:52.686Z,102730.91
2023-02-11T21:43:19.544Z,102740.19
2023-02-11T21:45:50.098Z,102732.50
2023-02-11T21:48:17.409Z,102735.97
2023-02-11T21:50:45.904Z,102746.47
2023-02-11T21:53:12.573Z,102751.75
2023-02-11T21:55:40.189Z,102766.56
2023-02-11T21:58:06.791Z,102764.75
2023-02-11T22:00:33.405Z,102761.13
2023-02-11T22:03:01.405Z,102766.56
2023-02-11T22:05:27.926Z,102767.41
2023-02-11T22:07:54.317Z,102768.47
2023-02-11T22:10:20.836Z,102765.00
2023-02-11T22:12:47.774Z,102772.72
2023-02-11T22:15:14.317Z,102771.13
2023-02-11T22:17:40.677Z,102772.94
2023-02-11T22:20:09.533Z,102777.13
2023-02-11T22:22:35.899Z,102777.38
2023-02-11T22:25:02.307Z,102792.22
2023-02-11T22:27:28.676Z,102788.72
2023-02-11T22:29:55.028Z,102792.81
2023-02-11T22:32:21.415Z,102790.53
2023-02-11T22:34:47.820Z,102798.97
2023-02-11T22:37:15.495Z,102792.09
2023-02-11T22:39:42.013Z,102798.66
2023-02-11T22:42:08.955Z,102797.34
2023-02-11T22:44:36.757Z,102801.72
2023-02-11T22:47:03.277Z,102807.13
2023-02-11T22:49:29.650Z,102804.84
2023-02-11T22:51:56.061Z,102816.16
2023-02-11T22:54:23.825Z,102811.91
2023-02-11T22:56:51.249Z,102814.59
2023-02-11T22:59:18.042Z,102815.09
2023-02-11T23:01:45.075Z,102815.94
2023-02-11T23:04:13.623Z,102821.72
2023-02-11T23:06:40.156Z,102822.78
2023-02-11T23:09:08.142Z,102819.44
2023-02-11T23:11:36.033Z,102830.97
2023-02-11T23:14:02.725Z,102824.84
2023-02-11T23:16:31.134Z,102834.09
2023-02-11T23:18:59.307Z,102831.44
2023-02-11T23:21:27.891Z,102836.28
2023-02-11T23:23:55.679Z,102834.69
2023-02-11T23:26:22.243Z,102838.66
2023-02-11T23:28:50.035Z,102838.81
2023-02-11T23:31:19.005Z,102849.16
2023-02-11T23:33:46.447Z,102839.19
2023-02-11T23:36:13.630Z,102846.28
2023-02-11T23:38:40.225Z,102856.53
2023-02-11T23:41:06.986Z,102846.53
2023-02-11T23:43:33.340Z,102851.44
2023-02-11T23:46:01.071Z,102847.00
2023-02-11T23:48:27.458Z,102857.72
2023-02-11T23:50:53.888Z,102861.34
2023-02-11T23:53:20.333Z,102859.56
2023-02-11T23:55:46.982Z,102858.34
2023-02-11T23:58:14.490Z,102850.97
